sensor_id;sensor_type;location;lat;lon;timestamp;pressure;altitude;pressure_sealevel;temperature;humidity
10145;BME280;5113;41.822;23.564;2024-02-23T00:00:06;-11253.88;;;11.55;48.87
10145;BME280;5113;41.822;23.564;2024-02-23T00:03:15;-11248.25;;;11.35;49.41
10145;BME280;5113;41.822;23.564;2024-02-23T00:06:23;-11246.41;;;11.28;49.26
10145;BME280;5113;41.822;23.564;2024-02-23T00:09:33;-11237.84;;;10.97;50.67
10145;BME280;5113;41.822;23.564;2024-02-23T00:12:41;-11227.00;;;10.58;51.12
10145;BME280;5113;41.822;23.564;2024-02-23T00:15:49;-11230.66;;;10.71;51.02
10145;BME280;5113;41.822;23.564;2024-02-23T00:18:57;-11243.03;;;11.16;50.69
10145;BME280;5113;41.822;23.564;2024-02-23T00:22:05;-11226.16;;;10.55;51.56
10145;BME280;5113;41.822;23.564;2024-02-23T00:25:13;-11239.38;;;11.03;50.43
10145;BME280;5113;41.822;23.564;2024-02-23T00:28:20;-11221.38;;;10.38;51.72
10145;BME280;5113;41.822;23.564;2024-02-23T00:31:27;-11192.41;;;9.33;54.56
10145;BME280;5113;41.822;23.564;2024-02-23T00:34:34;-11218.00;;;10.25;52.20
10145;BME280;5113;41.822;23.564;2024-02-23T00:37:42;-11210.41;;;9.98;53.19
10145;BME280;5113;41.822;23.564;2024-02-23T00:40:49;-11210.53;;;9.99;53.08
10145;BME280;5113;41.822;23.564;2024-02-23T00:43:56;-11233.88;;;10.83;51.11
10145;BME280;5113;41.822;23.564;2024-02-23T00:47:03;-11222.22;;;10.41;52.87
10145;BME280;5113;41.822;23.564;2024-02-23T00:50:10;-11218.69;;;10.28;52.12
10145;BME280;5113;41.822;23.564;2024-02-23T00:53:18;-11221.50;;;10.38;52.06
10145;BME280;5113;41.822;23.564;2024-02-23T00:56:25;-11200.97;;;9.64;53.10
10145;BME280;5113;41.822;23.564;2024-02-23T00:59:45;-11208.00;;;9.89;52.66
10145;BME280;5113;41.822;23.564;2024-02-23T01:02:51;-11203.66;;;9.74;53.62
10145;BME280;5113;41.822;23.564;2024-02-23T01:05:58;-11229.94;;;10.69;51.69
10145;BME280;5113;41.822;23.564;2024-02-23T01:09:06;-11210.25;;;9.98;52.93
10145;BME280;5113;41.822;23.564;2024-02-23T01:12:13;-11201.97;;;9.68;53.86
10145;BME280;5113;41.822;23.564;2024-02-23T01:15:20;-11209.97;;;9.97;53.21
10145;BME280;5113;41.822;23.564;2024-02-23T01:18:26;-11220.25;;;10.34;52.33
10145;BME280;5113;41.822;23.564;2024-02-23T01:21:33;-11210.81;;;10.00;53.21
10145;BME280;5113;41.822;23.564;2024-02-23T01:24:42;-11212.50;;;10.06;53.39
10145;BME280;5113;41.822;23.564;2024-02-23T01:27:49;-11227.41;;;10.59;51.88
10145;BME280;5113;41.822;23.564;2024-02-23T01:30:57;-11211.66;;;10.03;53.24
10145;BME280;5113;41.822;23.564;2024-02-23T01:34:03;-11225.59;;;10.53;51.99
10145;BME280;5113;41.822;23.564;2024-02-23T01:37:11;-11209.41;;;9.94;53.34
10145;BME280;5113;41.822;23.564;2024-02-23T01:40:19;-11235.88;;;10.90;51.47
10145;BME280;5113;41.822;23.564;2024-02-23T01:43:26;-11232.34;;;10.77;51.37
10145;BME280;5113;41.822;23.564;2024-02-23T01:46:33;-11230.50;;;10.71;51.70
10145;BME280;5113;41.822;23.564;2024-02-23T01:49:39;-11218.28;;;10.27;52.55
10145;BME280;5113;41.822;23.564;2024-02-23T01:52:46;-11192.13;;;9.32;55.29
10145;BME280;5113;41.822;23.564;2024-02-23T01:55:55;-11226.56;;;10.56;52.39
10145;BME280;5113;41.822;23.564;2024-02-23T01:59:02;-11187.47;;;9.15;55.75
10145;BME280;5113;41.822;23.564;2024-02-23T02:02:10;-11211.81;;;10.03;53.76
10145;BME280;5113;41.822;23.564;2024-02-23T02:05:17;-11217.56;;;10.24;53.57
10145;BME280;5113;41.822;23.564;2024-02-23T02:08:25;-11201.13;;;9.65;54.19
10145;BME280;5113;41.822;23.564;2024-02-23T02:11:33;-11183.25;;;9.00;56.30
10145;BME280;5113;41.822;23.564;2024-02-23T02:14:40;-11207.16;;;9.86;54.05
10145;BME280;5113;41.822;23.564;2024-02-23T02:17:47;-11237.28;;;10.95;51.88
10145;BME280;5113;41.822;23.564;2024-02-23T02:20:56;-11200.84;;;9.64;54.72
10145;BME280;5113;41.822;23.564;2024-02-23T02:24:03;-11200.13;;;9.61;55.31
10145;BME280;5113;41.822;23.564;2024-02-23T02:27:11;-11225.72;;;10.53;53.21
10145;BME280;5113;41.822;23.564;2024-02-23T02:30:18;-11221.09;;;10.37;53.58
10145;BME280;5113;41.822;23.564;2024-02-23T02:33:25;-11228.69;;;10.64;53.33
10145;BME280;5113;41.822;23.564;2024-02-23T02:36:32;-11230.22;;;10.70;53.01
10145;BME280;5113;41.822;23.564;2024-02-23T02:39:39;-11230.78;;;10.72;53.17
10145;BME280;5113;41.822;23.564;2024-02-23T02:42:47;-11236.28;;;10.91;52.49
10145;BME280;5113;41.822;23.564;2024-02-23T02:45:54;-11235.31;;;10.88;52.00
10145;BME280;5113;41.822;23.564;2024-02-23T02:49:02;-11220.66;;;10.35;53.50
10145;BME280;5113;41.822;23.564;2024-02-23T02:52:09;-11222.63;;;10.42;53.58
10145;BME280;5113;41.822;23.564;2024-02-23T02:55:16;-11217.56;;;10.24;53.46
10145;BME280;5113;41.822;23.564;2024-02-23T02:58:24;-11241.19;;;11.09;51.79
10145;BME280;5113;41.822;23.564;2024-02-23T03:01:31;-11221.78;;;10.39;53.04
10145;BME280;5113;41.822;23.564;2024-02-23T03:04:39;-11230.09;;;10.69;52.66
10145;BME280;5113;41.822;23.564;2024-02-23T03:07:45;-11222.34;;;10.41;53.33
10145;BME280;5113;41.822;23.564;2024-02-23T03:10:52;-11231.22;;;10.73;52.72
10145;BME280;5113;41.822;23.564;2024-02-23T03:14:00;-11235.88;;;10.90;52.16
10145;BME280;5113;41.822;23.564;2024-02-23T03:17:08;-11225.72;;;10.53;53.51
10145;BME280;5113;41.822;23.564;2024-02-23T03:20:15;-11240.63;;;11.07;52.04
10145;BME280;5113;41.822;23.564;2024-02-23T03:23:40;-11233.03;;;10.80;52.43
10145;BME280;5113;41.822;23.564;2024-02-23T03:26:47;-11244.88;;;11.22;52.04
10145;BME280;5113;41.822;23.564;2024-02-23T03:29:55;-11239.22;;;11.02;52.04
10145;BME280;5113;41.822;23.564;2024-02-23T03:33:02;-11224.88;;;10.50;53.30
10145;BME280;5113;41.822;23.564;2024-02-23T03:36:09;-11230.09;;;10.69;53.90
10145;BME280;5113;41.822;23.564;2024-02-23T03:39:16;-11216.03;;;10.18;55.11
10145;BME280;5113;41.822;23.564;2024-02-23T03:42:22;-11188.88;;;9.20;57.82
10145;BME280;5113;41.822;23.564;2024-02-23T03:45:31;-11180.16;;;8.89;59.27
10145;BME280;5113;41.822;23.564;2024-02-23T03:48:38;-11209.00;;;9.93;56.26
10145;BME280;5113;41.822;23.564;2024-02-23T03:51:45;-11205.75;;;9.81;55.99
10145;BME280;5113;41.822;23.564;2024-02-23T03:54:51;-11210.97;;;10.00;55.54
10145;BME280;5113;41.822;23.564;2024-02-23T03:57:59;-11210.25;;;9.98;55.02
10145;BME280;5113;41.822;23.564;2024-02-23T04:01:07;-11229.66;;;10.68;53.44
10145;BME280;5113;41.822;23.564;2024-02-23T04:04:14;-11206.59;;;9.84;54.83
10145;BME280;5113;41.822;23.564;2024-02-23T04:07:22;-11228.81;;;10.65;53.64
10145;BME280;5113;41.822;23.564;2024-02-23T04:10:29;-11222.06;;;10.40;53.69
10145;BME280;5113;41.822;23.564;2024-02-23T04:13:37;-11219.41;;;10.31;53.73
10145;BME280;5113;41.822;23.564;2024-02-23T04:16:45;-11190.00;;;9.24;56.40
10145;BME280;5113;41.822;23.564;2024-02-23T04:19:52;-11215.03;;;10.15;54.57
10145;BME280;5113;41.822;23.564;2024-02-23T04:22:59;-11192.13;;;9.32;55.55
10145;BME280;5113;41.822;23.564;2024-02-23T04:26:06;-11148.41;;;7.74;61.18
10145;BME280;5113;41.822;23.564;2024-02-23T04:29:13;-11172.59;;;8.62;60.07
10145;BME280;5113;41.822;23.564;2024-02-23T04:32:22;-11183.97;;;9.03;57.84
10145;BME280;5113;41.822;23.564;2024-02-23T04:35:29;-11159.66;;;8.15;60.36
10145;BME280;5113;41.822;23.564;2024-02-23T04:38:37;-11192.97;;;9.35;57.00
10145;BME280;5113;41.822;23.564;2024-02-23T04:41:43;-11198.44;;;9.55;56.33
10145;BME280;5113;41.822;23.564;2024-02-23T04:44:51;-11170.91;;;8.55;58.44
10145;BME280;5113;41.822;23.564;2024-02-23T04:48:02;-11188.88;;;9.20;56.41
10145;BME280;5113;41.822;23.564;2024-02-23T04:51:09;-11186.34;;;9.11;56.98
10145;BME280;5113;41.822;23.564;2024-02-23T04:54:16;-11199.56;;;9.59;56.36
10145;BME280;5113;41.822;23.564;2024-02-23T04:57:22;-11186.63;;;9.12;57.71
10145;BME280;5113;41.822;23.564;2024-02-23T05:00:30;-11200.41;;;9.62;55.85
10145;BME280;5113;41.822;23.564;2024-02-23T05:03:40;-11192.41;;;9.33;56.81
10145;BME280;5113;41.822;23.564;2024-02-23T05:06:47;-11192.41;;;9.33;56.69
10145;BME280;5113;41.822;23.564;2024-02-23T05:09:54;-11191.97;;;9.32;56.73
10145;BME280;5113;41.822;23.564;2024-02-23T05:13:01;-11177.06;;;8.78;59.14
10145;BME280;5113;41.822;23.564;2024-02-23T05:16:08;-11203.50;;;9.73;55.97
10145;BME280;5113;41.822;23.564;2024-02-23T05:19:15;-11179.03;;;8.85;58.10
10145;BME280;5113;41.822;23.564;2024-02-23T05:22:22;-11188.88;;;9.20;57.72
10145;BME280;5113;41.822;23.564;2024-02-23T05:25:29;-11184.66;;;9.05;57.53
10145;BME280;5113;41.822;23.564;2024-02-23T05:28:36;-11193.38;;;9.37;56.50
10145;BME280;5113;41.822;23.564;2024-02-23T05:31:49;-11215.75;;;10.17;54.81
10145;BME280;5113;41.822;23.564;2024-02-23T05:34:57;-11214.19;;;10.12;54.64
10145;BME280;5113;41.822;23.564;2024-02-23T05:38:04;-11203.50;;;9.73;55.13
10145;BME280;5113;41.822;23.564;2024-02-23T05:41:12;-11206.88;;;9.85;55.41
10145;BME280;5113;41.822;23.564;2024-02-23T05:44:18;-11206.47;;;9.84;55.29
10145;BME280;5113;41.822;23.564;2024-02-23T05:47:26;-11212.38;;;10.05;55.42
10145;BME280;5113;41.822;23.564;2024-02-23T05:50:34;-11218.00;;;10.25;54.83
10145;BME280;5113;41.822;23.564;2024-02-23T05:53:41;-11222.34;;;10.41;54.18
10145;BME280;5113;41.822;23.564;2024-02-23T05:56:49;-11222.34;;;10.41;54.01
10145;BME280;5113;41.822;23.564;2024-02-23T05:59:55;-11222.34;;;10.41;54.58
10145;BME280;5113;41.822;23.564;2024-02-23T06:03:02;-11201.81;;;9.67;55.56
10145;BME280;5113;41.822;23.564;2024-02-23T06:06:10;-11227.28;;;10.59;54.29
10145;BME280;5113;41.822;23.564;2024-02-23T06:09:17;-11217.56;;;10.24;54.04
10145;BME280;5113;41.822;23.564;2024-02-23T06:12:24;-11202.94;;;9.71;55.80
10145;BME280;5113;41.822;23.564;2024-02-23T06:15:32;-11191.13;;;9.28;57.13
10145;BME280;5113;41.822;23.564;2024-02-23T06:18:39;-11232.34;;;10.77;54.18
10145;BME280;5113;41.822;23.564;2024-02-23T06:21:49;-11226.72;;;10.57;54.70
10145;BME280;5113;41.822;23.564;2024-02-23T06:24:56;-11217.56;;;10.24;55.05
10145;BME280;5113;41.822;23.564;2024-02-23T06:28:02;-11188.19;;;9.18;57.46
10145;BME280;5113;41.822;23.564;2024-02-23T06:31:09;-11182.41;;;8.97;59.09
10145;BME280;5113;41.822;23.564;2024-02-23T06:34:16;-11211.38;;;10.02;55.96
10145;BME280;5113;41.822;23.564;2024-02-23T06:37:25;-11221.09;;;10.37;55.59
10145;BME280;5113;41.822;23.564;2024-02-23T06:40:31;-11231.34;;;10.74;54.74
10145;BME280;5113;41.822;23.564;2024-02-23T06:43:55;-11243.47;;;11.17;53.20
10145;BME280;5113;41.822;23.564;2024-02-23T06:47:01;-11234.59;;;10.85;54.04
10145;BME280;5113;41.822;23.564;2024-02-23T06:50:09;-11226.28;;;10.55;54.72
10145;BME280;5113;41.822;23.564;2024-02-23T06:53:18;-11239.50;;;11.03;53.88
10145;BME280;5113;41.822;23.564;2024-02-23T06:56:25;-11233.19;;;10.80;54.63
10145;BME280;5113;41.822;23.564;2024-02-23T06:59:31;-11277.78;;;12.41;50.91
10145;BME280;5113;41.822;23.564;2024-02-23T07:02:38;-11285.25;;;12.68;49.84
10145;BME280;5113;41.822;23.564;2024-02-23T07:05:45;-11264.56;;;11.94;51.57
10145;BME280;5113;41.822;23.564;2024-02-23T07:08:53;-11269.22;;;12.10;51.64
10145;BME280;5113;41.822;23.564;2024-02-23T07:12:01;-11272.88;;;12.23;51.00
10145;BME280;5113;41.822;23.564;2024-02-23T07:15:08;-11258.09;;;11.70;52.27
10145;BME280;5113;41.822;23.564;2024-02-23T07:18:15;-11269.22;;;12.10;51.83
10145;BME280;5113;41.822;23.564;2024-02-23T07:21:22;-11274.97;;;12.31;51.92
10145;BME280;5113;41.822;23.564;2024-02-23T07:24:30;-11296.66;;;13.09;49.53
10145;BME280;5113;41.822;23.564;2024-02-23T07:27:38;-11315.09;;;13.76;48.23
10145;BME280;5113;41.822;23.564;2024-02-23T07:30:44;-11310.16;;;13.58;49.20
10145;BME280;5113;41.822;23.564;2024-02-23T07:33:51;-11307.34;;;13.48;49.43
10145;BME280;5113;41.822;23.564;2024-02-23T07:36:58;-11336.78;;;14.54;47.19
10145;BME280;5113;41.822;23.564;2024-02-23T07:40:07;-11318.19;;;13.87;48.70
10145;BME280;5113;41.822;23.564;2024-02-23T07:43:14;-11331.44;;;14.35;47.89
10145;BME280;5113;41.822;23.564;2024-02-23T07:46:20;-11346.22;;;14.88;47.00
10145;BME280;5113;41.822;23.564;2024-02-23T07:49:31;-11327.22;;;14.19;48.28
10145;BME280;5113;41.822;23.564;2024-02-23T07:52:38;-11336.50;;;14.53;47.73
10145;BME280;5113;41.822;23.564;2024-02-23T07:55:46;-11331.56;;;14.35;47.89
10145;BME280;5113;41.822;23.564;2024-02-23T07:58:56;-11354.38;;;15.17;46.86
10145;BME280;5113;41.822;23.564;2024-02-23T08:02:03;-11325.94;;;14.15;48.60
10145;BME280;5113;41.822;23.564;2024-02-23T08:05:10;-11339.75;;;14.65;47.36
10145;BME280;5113;41.822;23.564;2024-02-23T08:08:17;-11313.41;;;13.70;49.56
10145;BME280;5113;41.822;23.564;2024-02-23T08:11:26;-11329.59;;;14.28;49.14
10145;BME280;5113;41.822;23.564;2024-02-23T08:14:32;-11349.88;;;15.01;47.66
10145;BME280;5113;41.822;23.564;2024-02-23T08:17:39;-11338.91;;;14.62;48.46
10145;BME280;5113;41.822;23.564;2024-02-23T08:20:46;-11375.81;;;15.95;46.39
10145;BME280;5113;41.822;23.564;2024-02-23T08:23:53;-11376.09;;;15.96;45.93
10145;BME280;5113;41.822;23.564;2024-02-23T08:27:01;-11379.31;;;16.07;46.06
10145;BME280;5113;41.822;23.564;2024-02-23T08:30:10;-11362.28;;;15.46;47.24
10145;BME280;5113;41.822;23.564;2024-02-23T08:33:17;-11369.31;;;15.71;46.12
10145;BME280;5113;41.822;23.564;2024-02-23T08:36:24;-11378.91;;;16.06;46.43
10145;BME280;5113;41.822;23.564;2024-02-23T08:39:30;-11353.53;;;15.14;48.02
10145;BME280;5113;41.822;23.564;2024-02-23T08:42:41;-11381.44;;;16.15;46.63
10145;BME280;5113;41.822;23.564;2024-02-23T08:45:47;-11405.13;;;17.00;45.03
10145;BME280;5113;41.822;23.564;2024-02-23T08:48:54;-11398.63;;;16.77;45.49
10145;BME280;5113;41.822;23.564;2024-02-23T08:52:01;-11402.00;;;16.89;45.79
10145;BME280;5113;41.822;23.564;2024-02-23T08:55:09;-11397.78;;;16.74;45.28
10145;BME280;5113;41.822;23.564;2024-02-23T08:58:18;-11401.72;;;16.88;45.08
10145;BME280;5113;41.822;23.564;2024-02-23T09:01:25;-11396.38;;;16.69;45.57
10145;BME280;5113;41.822;23.564;2024-02-23T09:04:32;-11430.78;;;17.93;43.42
10145;BME280;5113;41.822;23.564;2024-02-23T09:07:39;-11425.84;;;17.75;44.10
10145;BME280;5113;41.822;23.564;2024-02-23T09:10:46;-11452.75;;;18.72;43.45
10145;BME280;5113;41.822;23.564;2024-02-23T09:13:54;-11425.84;;;17.75;44.36
10145;BME280;5113;41.822;23.564;2024-02-23T09:17:01;-11457.69;;;18.90;43.32
10145;BME280;5113;41.822;23.564;2024-02-23T09:20:11;-11456.84;;;18.87;45.46
10145;BME280;5113;41.822;23.564;2024-02-23T09:23:18;-11481.81;;;19.76;43.51
10145;BME280;5113;41.822;23.564;2024-02-23T09:26:25;-11479.56;;;19.68;42.73
10145;BME280;5113;41.822;23.564;2024-02-23T09:29:34;-11470.25;;;19.35;43.58
10145;BME280;5113;41.822;23.564;2024-02-23T09:32:40;-11479.00;;;19.66;42.60
10145;BME280;5113;41.822;23.564;2024-02-23T09:35:47;-11472.22;;;19.42;43.82
10145;BME280;5113;41.822;23.564;2024-02-23T09:38:54;-11469.53;;;19.32;43.32
10145;BME280;5113;41.822;23.564;2024-02-23T09:42:01;-11459.41;;;18.96;42.62
10145;BME280;5113;41.822;23.564;2024-02-23T09:45:11;-11497.75;;;20.34;41.05
10145;BME280;5113;41.822;23.564;2024-02-23T09:48:19;-11474.34;;;19.50;41.32
10145;BME280;5113;41.822;23.564;2024-02-23T09:51:27;-11435.56;;;18.10;42.32
10145;BME280;5113;41.822;23.564;2024-02-23T09:54:34;-11484.06;;;19.85;40.80
10145;BME280;5113;41.822;23.564;2024-02-23T09:57:42;-11441.75;;;18.32;41.82
10145;BME280;5113;41.822;23.564;2024-02-23T10:00:50;-11446.00;;;18.47;41.24
10145;BME280;5113;41.822;23.564;2024-02-23T10:03:57;-11477.03;;;19.59;40.45
10145;BME280;5113;41.822;23.564;2024-02-23T10:07:04;-11495.34;;;20.25;39.19
10145;BME280;5113;41.822;23.564;2024-02-23T10:10:11;-11459.53;;;18.96;40.19
10145;BME280;5113;41.822;23.564;2024-02-23T10:13:18;-11492.13;;;20.14;40.09
10145;BME280;5113;41.822;23.564;2024-02-23T10:16:46;-11517.78;;;21.06;39.11
10145;BME280;5113;41.822;23.564;2024-02-23T10:19:52;-11513.69;;;20.91;39.65
10145;BME280;5113;41.822;23.564;2024-02-23T10:23:00;-11459.25;;;18.95;41.46
10145;BME280;5113;41.822;23.564;2024-02-23T10:26:07;-11459.81;;;18.97;42.26
10145;BME280;5113;41.822;23.564;2024-02-23T10:29:14;-11461.94;;;19.05;41.51
10145;BME280;5113;41.822;23.564;2024-02-23T10:32:25;-11463.19;;;19.09;41.96
10145;BME280;5113;41.822;23.564;2024-02-23T10:35:38;-11558.28;;;22.52;38.71
10145;BME280;5113;41.822;23.564;2024-02-23T10:38:46;-11530.34;;;21.51;37.77
10145;BME280;5113;41.822;23.564;2024-02-23T10:41:56;-11534.16;;;21.65;38.21
10145;BME280;5113;41.822;23.564;2024-02-23T10:45:05;-11512.00;;;20.85;37.14
10145;BME280;5113;41.822;23.564;2024-02-23T10:48:15;-11510.59;;;20.80;37.85
10145;BME280;5113;41.822;23.564;2024-02-23T10:51:23;-11512.41;;;20.87;38.52
10145;BME280;5113;41.822;23.564;2024-02-23T10:54:49;-11528.09;;;21.43;37.93
10145;BME280;5113;41.822;23.564;2024-02-23T10:57:58;-11489.44;;;20.04;39.49
10145;BME280;5113;41.822;23.564;2024-02-23T11:01:07;-11525.53;;;21.34;38.55
10145;BME280;5113;41.822;23.564;2024-02-23T11:04:16;-11482.66;;;19.79;40.17
10145;BME280;5113;41.822;23.564;2024-02-23T11:07:23;-11492.25;;;20.14;39.29
10145;BME280;5113;41.822;23.564;2024-02-23T11:10:30;-11466.31;;;19.21;40.59
10145;BME280;5113;41.822;23.564;2024-02-23T11:13:38;-11509.75;;;20.77;38.99
10145;BME280;5113;41.822;23.564;2024-02-23T11:16:51;-11548.97;;;22.18;37.23
10145;BME280;5113;41.822;23.564;2024-02-23T11:20:03;-11543.03;;;21.97;38.13
10145;BME280;5113;41.822;23.564;2024-02-23T11:23:13;-11531.19;;;21.54;37.66
10145;BME280;5113;41.822;23.564;2024-02-23T11:26:23;-11537.97;;;21.79;37.46
10145;BME280;5113;41.822;23.564;2024-02-23T11:29:31;-11484.22;;;19.85;39.79
10145;BME280;5113;41.822;23.564;2024-02-23T11:32:39;-11463.06;;;19.09;40.09
10145;BME280;5113;41.822;23.564;2024-02-23T11:35:48;-11517.06;;;21.03;36.98
10145;BME280;5113;41.822;23.564;2024-02-23T11:38:58;-11493.09;;;20.17;39.54
10145;BME280;5113;41.822;23.564;2024-02-23T11:42:06;-11479.28;;;19.67;39.45
10145;BME280;5113;41.822;23.564;2024-02-23T11:45:14;-11516.78;;;21.02;39.07
10145;BME280;5113;41.822;23.564;2024-02-23T11:48:21;-11506.62;;;20.66;39.38
10145;BME280;5113;41.822;23.564;2024-02-23T11:51:30;-11469.97;;;19.34;40.76
10145;BME280;5113;41.822;23.564;2024-02-23T11:54:37;-11489.44;;;20.04;40.31
10145;BME280;5113;41.822;23.564;2024-02-23T11:57:44;-11529.50;;;21.48;38.01
10145;BME280;5113;41.822;23.564;2024-02-23T12:00:52;-11525.69;;;21.34;38.28
10145;BME280;5113;41.822;23.564;2024-02-23T12:03:59;-11523.16;;;21.25;38.53
10145;BME280;5113;41.822;23.564;2024-02-23T12:07:08;-11515.66;;;20.98;38.98
10145;BME280;5113;41.822;23.564;2024-02-23T12:10:15;-11535.97;;;21.71;38.15
10145;BME280;5113;41.822;23.564;2024-02-23T12:13:22;-11519.47;;;21.12;39.21
10145;BME280;5113;41.822;23.564;2024-02-23T12:16:29;-11535.69;;;21.70;38.39
10145;BME280;5113;41.822;23.564;2024-02-23T12:19:38;-11554.47;;;22.38;36.84
10145;BME280;5113;41.822;23.564;2024-02-23T12:22:47;-11559.81;;;22.57;37.19
10145;BME280;5113;41.822;23.564;2024-02-23T12:25:54;-11542.19;;;21.94;36.86
10145;BME280;5113;41.822;23.564;2024-02-23T12:29:03;-11537.81;;;21.78;36.84
10145;BME280;5113;41.822;23.564;2024-02-23T12:32:10;-11545.72;;;22.06;37.50
10145;BME280;5113;41.822;23.564;2024-02-23T12:35:17;-11531.47;;;21.55;37.07
10145;BME280;5113;41.822;23.564;2024-02-23T12:38:25;-11528.22;;;21.43;37.22
10145;BME280;5113;41.822;23.564;2024-02-23T12:41:32;-11529.91;;;21.50;36.88
10145;BME280;5113;41.822;23.564;2024-02-23T12:44:39;-11519.06;;;21.10;37.58
10145;BME280;5113;41.822;23.564;2024-02-23T12:47:46;-11525.69;;;21.34;37.13
10145;BME280;5113;41.822;23.564;2024-02-23T12:50:53;-11546.16;;;22.08;35.89
10145;BME280;5113;41.822;23.564;2024-02-23T12:54:01;-11547.13;;;22.12;35.69
10145;BME280;5113;41.822;23.564;2024-02-23T12:57:10;-11547.56;;;22.13;35.01
10145;BME280;5113;41.822;23.564;2024-02-23T13:00:17;-11589.75;;;23.65;33.97
10145;BME280;5113;41.822;23.564;2024-02-23T13:03:24;-11552.50;;;22.31;35.10
10145;BME280;5113;41.822;23.564;2024-02-23T13:06:32;-11509.75;;;20.77;36.48
10145;BME280;5113;41.822;23.564;2024-02-23T13:09:40;-11524.84;;;21.31;35.90
10145;BME280;5113;41.822;23.564;2024-02-23T13:12:47;-11548.41;;;22.16;35.16
10145;BME280;5113;41.822;23.564;2024-02-23T13:15:54;-11575.22;;;23.13;34.24
10145;BME280;5113;41.822;23.564;2024-02-23T13:19:02;-11568.72;;;22.89;34.19
10145;BME280;5113;41.822;23.564;2024-02-23T13:22:09;-11528.94;;;21.46;34.80
10145;BME280;5113;41.822;23.564;2024-02-23T13:25:17;-11540.22;;;21.87;34.95
10145;BME280;5113;41.822;23.564;2024-02-23T13:28:24;-11495.34;;;20.25;36.52
10145;BME280;5113;41.822;23.564;2024-02-23T13:31:31;-11483.78;;;19.84;37.32
10145;BME280;5113;41.822;23.564;2024-02-23T13:34:37;-11472.50;;;19.43;38.22
10145;BME280;5113;41.822;23.564;2024-02-23T13:37:44;-11514.25;;;20.93;36.32
10145;BME280;5113;41.822;23.564;2024-02-23T13:40:53;-11570.41;;;22.95;33.88
10145;BME280;5113;41.822;23.564;2024-02-23T13:43:59;-11573.81;;;23.08;33.93
10145;BME280;5113;41.822;23.564;2024-02-23T13:47:06;-11588.50;;;23.60;32.91
10145;BME280;5113;41.822;23.564;2024-02-23T13:50:13;-11582.28;;;23.38;32.63
10145;BME280;5113;41.822;23.564;2024-02-23T13:53:19;-11547.13;;;22.12;34.53
10145;BME280;5113;41.822;23.564;2024-02-23T13:56:28;-11604.00;;;24.16;32.45
10145;BME280;5113;41.822;23.564;2024-02-23T13:59:34;-11585.66;;;23.50;33.06
10145;BME280;5113;41.822;23.564;2024-02-23T14:02:41;-11534.56;;;21.66;34.85
10145;BME280;5113;41.822;23.564;2024-02-23T14:05:50;-11565.47;;;22.78;34.05
10145;BME280;5113;41.822;23.564;2024-02-23T14:08:57;-11572.13;;;23.01;33.17
10145;BME280;5113;41.822;23.564;2024-02-23T14:12:05;-11593.84;;;23.80;32.83
10145;BME280;5113;41.822;23.564;2024-02-23T14:15:13;-11594.13;;;23.81;31.52
10145;BME280;5113;41.822;23.564;2024-02-23T14:18:19;-11580.28;;;23.31;32.58
10145;BME280;5113;41.822;23.564;2024-02-23T14:21:26;-11576.34;;;23.17;32.25
10145;BME280;5113;41.822;23.564;2024-02-23T14:24:33;-11562.22;;;22.66;33.39
10145;BME280;5113;41.822;23.564;2024-02-23T14:27:41;-11566.75;;;22.82;33.12
10145;BME280;5113;41.822;23.564;2024-02-23T14:30:48;-11572.25;;;23.02;31.75
10145;BME280;5113;41.822;23.564;2024-02-23T14:33:55;-11559.41;;;22.56;31.67
10145;BME280;5113;41.822;23.564;2024-02-23T14:37:02;-11584.81;;;23.47;31.53
10145;BME280;5113;41.822;23.564;2024-02-23T14:40:10;-11581.56;;;23.35;31.74
10145;BME280;5113;41.822;23.564;2024-02-23T14:43:20;-11544.88;;;22.03;33.47
10145;BME280;5113;41.822;23.564;2024-02-23T14:46:27;-11508.34;;;20.72;35.36
10145;BME280;5113;41.822;23.564;2024-02-23T14:49:33;-11506.06;;;20.64;36.26
10145;BME280;5113;41.822;23.564;2024-02-23T14:52:41;-11486.31;;;19.93;36.35
10145;BME280;5113;41.822;23.564;2024-02-23T14:55:49;-11503.97;;;20.56;35.78
10145;BME280;5113;41.822;23.564;2024-02-23T14:58:59;-11491.69;;;20.12;35.89
10145;BME280;5113;41.822;23.564;2024-02-23T15:02:07;-11499.16;;;20.39;35.90
10145;BME280;5113;41.822;23.564;2024-02-23T15:05:15;-11507.78;;;20.70;35.60
10145;BME280;5113;41.822;23.564;2024-02-23T15:08:23;-11484.78;;;19.87;35.88
10145;BME280;5113;41.822;23.564;2024-02-23T15:11:29;-11491.25;;;20.10;36.20
10145;BME280;5113;41.822;23.564;2024-02-23T15:14:37;-11496.47;;;20.29;36.19
10145;BME280;5113;41.822;23.564;2024-02-23T15:17:44;-11497.03;;;20.31;36.38
10145;BME280;5113;41.822;23.564;2024-02-23T15:20:52;-11485.91;;;19.91;37.28
10145;BME280;5113;41.822;23.564;2024-02-23T15:23:59;-11472.22;;;19.42;37.93
10145;BME280;5113;41.822;23.564;2024-02-23T15:27:06;-11456.72;;;18.86;38.51
10145;BME280;5113;41.822;23.564;2024-02-23T15:30:16;-11433.31;;;18.02;40.82
10145;BME280;5113;41.822;23.564;2024-02-23T15:33:23;-11454.19;;;18.77;39.69
10145;BME280;5113;41.822;23.564;2024-02-23T15:36:29;-11439.94;;;18.26;40.21
10145;BME280;5113;41.822;23.564;2024-02-23T15:39:36;-11449.94;;;18.62;39.48
10145;BME280;5113;41.822;23.564;2024-02-23T15:42:44;-11452.47;;;18.71;39.55
10145;BME280;5113;41.822;23.564;2024-02-23T15:45:51;-11429.94;;;17.90;41.06
10145;BME280;5113;41.822;23.564;2024-02-23T15:48:59;-11447.41;;;18.53;40.11
10145;BME280;5113;41.822;23.564;2024-02-23T15:52:17;-11439.22;;;18.23;40.51
10145;BME280;5113;41.822;23.564;2024-02-23T15:55:24;-11440.50;;;18.28;41.05
10145;BME280;5113;41.822;23.564;2024-02-23T15:58:30;-11434.72;;;18.07;40.90
10145;BME280;5113;41.822;23.564;2024-02-23T16:01:39;-11404.00;;;16.96;43.16
10145;BME280;5113;41.822;23.564;2024-02-23T16:04:45;-11411.31;;;17.23;42.73
10145;BME280;5113;41.822;23.564;2024-02-23T16:07:52;-11386.78;;;16.34;43.74
10145;BME280;5113;41.822;23.564;2024-02-23T16:10:59;-11389.91;;;16.45;42.53
10145;BME280;5113;41.822;23.564;2024-02-23T16:14:06;-11403.84;;;16.96;41.98
10145;BME280;5113;41.822;23.564;2024-02-23T16:17:14;-11402.88;;;16.92;42.01
10145;BME280;5113;41.822;23.564;2024-02-23T16:20:21;-11405.97;;;17.03;41.83
10145;BME280;5113;41.822;23.564;2024-02-23T16:23:28;-11399.75;;;16.81;43.15